To NAV CANADA Home Page Login to a new session Search on AWWS site Disclaimer Vers la page française équivalente Tips FAQ What's new on the site To the Forecasts and Observations / NOTAM section To "File a Flight Plan" website Publications and other links Update of the User's profile FIC Telephone Numbers My Weather Data Folder Route Weather Data Regional Weather Data Local Weather Data To the Forecasts and Observations / NOTAM section
Request Generated 06/14/2021 at 17:42:32 UTC . Weather information available at that time is displayed.

METAR/TAF

If you find any discrepancies between the coded METAR/TAF and the plain language METAR/TAF please use the coded METAR/TAF. LWIS bulletins are not decoded in plain language.

LONDON/ON    

METAR CYXU 141700Z 30011KT 280V340 15SM BKN035 BKN260 22/13 A2985 RMK CU5CI1 SL 07 DENSITY ALT 2000FT=
METAR
LOCATION
CYXU - LONDON/ON
DATE - TIME
14 JUNE 2021 - 1700 UTC
WIND
300 TRUE @ 11  KNOTS
VARIATION
280 <-> 340  DEG
VISIBILITY
15 STAT.  MILES
RUNWAY VISUAL RANGE
WEATHER
CLOUDINESS
BROKEN CLOUDS (5/8 - 7/8) 3500  FT
BROKEN CLOUDS (5/8 - 7/8) 26000  FT
TEMP / DEWPOINT
22 C / 13 C
ALTIMETER
29.85 IN HG
RECENT WEATHER
WIND SHEAR

METAR CYXU 141600Z 34009KT 270V360 15SM SCT026 20/13 A2985 RMK CU3 SLP109 DENSI ALT 1900FT=
METAR
LOCATION
CYXU - LONDON/ON
DATE - TIME
14 JUNE 2021 - 1600 UTC
WIND
340 TRUE @ 9  KNOTS
VARIATION
270 <-> 360  DEG
VISIBILITY
15 STAT.  MILES
RUNWAY VISUAL RANGE
WEATHER
CLOUDINESS
SCATTERED CLOUDS (3/8 - 4/8) 2600  FT
TEMP / DEWPOINT
20 C / 13 C
ALTIMETER
29.85 IN HG
RECENT WEATHER
WIND SHEAR

METAR CYXU 141500Z 34005KT 250V360 15SM FEW015 FEW055 SCT210 19/14 A2985 RMK CF C1CI1 SLP109 DENSITY ALT 1700FT=
METAR
LOCATION
CYXU - LONDON/ON
DATE - TIME
14 JUNE 2021 - 1500 UTC
WIND
340 TRUE @ 5  KNOTS
VARIATION
250 <-> 360  DEG
VISIBILITY
15 STAT.  MILES
RUNWAY VISUAL RANGE
WEATHER
CLOUDINESS
FEW CLOUDS (1/8 - 2/8) 1500  FT
FEW CLOUDS (1/8 - 2/8) 5500  FT
SCATTERED CLOUDS (3/8 - 4/8) 21000  FT
TEMP / DEWPOINT
19 C / 14 C
ALTIMETER
29.85 IN HG
RECENT WEATHER
WIND SHEAR

TAF CYXU 141739Z 1418/1518 33010G20KT P6SM -SHRA BKN070 PROB30 1418/1421 VRB15G25KT 1SM TSRA BR BKN015 OVC050CB FM142100 31010G20KT P6SM BKN040 FM150000 34010G20KT P6SM BKN020 FM150900 34008KT P6SM SCT020 FM151400 33012G22KT P6SM SCT050 RMK NXT FCST BY 150000Z=
TAF
LOCATION

CYXU - LONDON/ON
VALIDITY [UTC]
14 JUN - 1739 to
15 JUN - 1800
 
TIMES
[UTC]
WIND
[DEGREES TRUE]
VISIBILITY
[STAT. MILES]
WEATHER
CLOUDINESS
[FEET AGL]
 
14 JUN - 1800 to
14 JUN - 2100
330 @ 10 KNOTS
GUSTS 20 KNOTS
6+
LIGHT RAIN SHOWER
7000 BROKEN
30% PROBABILITY
14 JUN - 1800 to
14 JUN - 2100
VARIABLE @ 15 KNOTS
GUSTS 25 KNOTS
1
MODERATE THUNDERSTORM WITH RAIN
MIST
1500 BROKEN
5000 OVERCAST WITH CUMULONIMBUS
 
14 JUN - 2100 to
15 JUN - 0000
310 @ 10 KNOTS
GUSTS 20 KNOTS
6+
NIL
4000 BROKEN
 
15 JUN - 0000 to
15 JUN - 0900
340 @ 10 KNOTS
GUSTS 20 KNOTS
6+
NIL
2000 BROKEN
 
15 JUN - 0900 to
15 JUN - 1400
340 @ 8 KNOTS
6+
NIL
2000 SCATTERED
 
15 JUN - 1400 to
15 JUN - 1800
330 @ 12 KNOTS
GUSTS 22 KNOTS
6+
NIL
5000 SCATTERED
REMARKS
THE NEXT FORECAST WILL BE ISSUED BY 0000 UTC ON DAY 15


Your time UTC time
Weather data provided by Environment Canada and NAV CANADA